Latest Coastal Weather Observations for Townsville

IDQ60701

Issued at 2:52 pm EST Friday 30 September 2016 (issued every 10 minutes, with the page automatically refreshed every 10 minutes)

About coastal observations | Map of coastal stations | Coastal observations for QLD | Marine services | Other Formats
Station Details ID: 032040 Name: TOWNSVILLE AERO Lat: -19.25 Lon: 146.77 Height: 4.34 m
Data from the previous 72 hours. | See also: Recent months at Townsville
Date/Time
EST
Temp
°C
Wind Pressure Rain since
9am
mm
Weather Cloud Vis
km
Sea
Height
m
Swell
Dir  Spd
kts
Gust
kts
hPa Trend Height
m
Period
s
Dir
30/02:30pm 31.0 NE 18 21 1007.6 - 0.0 - - 10 - - - -
30/02:00pm 31.0 NE 15 20 1007.9 - 0.0 - Partly cloudy 10 - - - -
30/01:30pm 32.3 SW 5 9 1008.4 - 0.0 - - 10 - - - -
30/01:00pm 32.3 SSW 10 17 1008.7 - 0.0 - - 10 - - - -
30/12:30pm 31.9 S 9 15 1009.4 - 0.0 - - 10 - - - -
30/12:00pm 30.6 SSE 9 15 1009.9 R 0.0 - - 10 - - - -
30/11:30am 30.5 SSW 12 17 1010.6 - 0.0 - Mostly clear 10 - - - -
30/11:00am 30.2 SSE 9 15 1010.9 - 0.0 - Partly cloudy 10 - - - -
30/10:30am 30.7 S 10 17 1011.2 - 0.0 - Mostly clear 10 - - - -
30/10:00am 29.2 S 8 14 1011.4 - 0.0 - Mostly clear 10 - - - -
30/09:30am 29.4 SSW 8 15 1011.2 - 0.0 - Mostly clear 10 - - - -
30/09:00am 29.0 SSW 8 11 1010.8 S 0.2 - Mostly clear 10 - - - -
30/08:30am 28.3 SSW 8 12 1010.6 - 0.2 - Mostly clear 10 - - - -
30/08:00am 27.8 WSW 7 10 1010.7 - 0.2 - Mostly clear 10 - - - -
30/07:30am 26.8 W 8 10 1010.3 - 0.2 - Mostly clear 10 - - - -
30/07:00am 26.1 WSW 5 6 1009.7 - 0.2 - Mostly clear 10 - - - -
30/06:30am 25.0 W 4 5 1009.5 - 0.2 - Mostly clear 10 - - - -
30/06:00am 24.5 NW 5 5 1009.1 S 0.2 - Mostly cloudy 10 - - - -
30/05:30am 24.9 W 3 4 1008.8 - 0.2 - Partly cloudy 10 - - - -
30/05:00am 25.7 WNW 6 8 1008.5 - 0.2 - Partly cloudy 10 - - - -
30/04:30am 25.8 NNW 9 13 1008.5 - 0.2 - Partly cloudy 10 - - - -
30/04:10am 25.7 N 10 15 1008.1 - 0.2 - Partly cloudy 10 - - - -
30/04:06am 25.7 NNW 10 15 1008.2 - 0.2 - Partly cloudy 10 - - - -
30/04:00am 25.8 NNW 11 14 1008.4 - 0.2 - Partly cloudy 10 - - - -
30/03:51am 25.9 NNW 11 15 1008.6 - 0.2 - Partly cloudy 10 - - - -
30/03:41am 25.9 N 10 15 1008.5 - 0.2 - Partly cloudy 10 - - - -
30/03:30am 25.9 NNW 12 17 1008.6 - 0.2 - Partly cloudy 10 - - - -
30/03:27am 26.0 NNW 12 17 1008.6 - 0.2 - Partly cloudy 10 - - - -
30/03:00am 26.0 NNW 10 15 1008.4 F 0.2 - Cloudy 10 - - - -
30/02:37am 25.9 NNW 9 14 1008.8 - 0.2 - Partly cloudy 10 - - - -
30/02:30am 25.8 NNW 9 11 1008.7 - 0.2 - Partly cloudy 10 - - - -
30/02:26am 26.0 NNW 9 11 1008.8 - 0.2 - Partly cloudy 10 - - - -
30/02:24am 26.0 N 9 14 1008.8 - 0.2 - Partly cloudy 10 - - - -
30/02:00am 26.1 N 8 12 1009.2 - 0.2 - Cloudy 10 - - - -
30/01:40am 26.0 N 9 13 1009.2 - 0.2 - Partly cloudy 10 - - - -
30/01:30am 26.1 N 8 13 1009.2 - 0.2 - Partly cloudy 10 - - - -
30/01:00am 26.0 N 9 12 1009.2 - 0.2 - Partly cloudy 10 - - - -
30/12:54am 26.0 N 9 13 1009.3 - 0.2 - Partly cloudy 10 - - - -
30/12:36am 26.0 N 9 12 1009.5 - 0.2 - Partly cloudy 10 - - - -
30/12:30am 26.0 N 9 12 1009.5 - 0.2 - Partly cloudy 10 - - - -
30/12:00am 26.0 N 8 11 1009.8 F 0.2 - Cloudy 10 - - - -
 
Date/Time
EST
Temp
°C
Wind Pressure Rain since
9am
mm
Weather Cloud Vis
km
Sea
Height
m
Swell
Dir  Spd
kts
Gust
kts
hPa Trend Height
m
Period
s
Dir
29/11:30pm 26.0 N 10 14 1010.0 - 0.2 - Partly cloudy 10 - - - -
29/11:19pm 26.0 N 10 14 1010.1 - 0.2 - Partly cloudy 10 - - - -
29/11:13pm 26.0 N 9 12 1010.1 - 0.2 - Partly cloudy 10 - - - -
29/11:00pm 26.0 N 10 15 1010.2 - 0.2 - Partly cloudy 10 - - - -
29/10:30pm 26.0 N 7 10 1010.3 - 0.2 - Partly cloudy 10 - - - -
29/10:19pm 26.0 N 8 10 1010.3 - 0.2 - Partly cloudy 10 - - - -
29/10:18pm 26.0 N 8 11 1010.3 - 0.2 - Partly cloudy 10 - - - -
29/10:00pm 26.0 N 8 10 1010.3 - 0.2 - Partly cloudy 10 - - - -
29/09:47pm 25.9 N 8 12 1010.2 - 0.2 - Partly cloudy 10 - - - -
29/09:30pm 25.9 N 9 13 1009.8 - 0.2 - Partly cloudy 10 - - - -
29/09:21pm 25.8 N 10 15 1009.8 - 0.2 - Partly cloudy 10 - - - -
29/09:00pm 25.9 N 10 14 1009.9 R 0.2 - Cloudy 10 - - - -
29/08:56pm 25.9 N 10 14 1009.8 - 0.2 - Partly cloudy 10 - - - -
29/08:52pm 26.0 N 9 14 1009.8 - 0.2 - Partly cloudy 10 - - - -
29/08:30pm 25.8 N 7 10 1010.0 - 0.2 - Partly cloudy 10 - - - -
29/08:19pm 25.9 N 7 9 1009.8 - 0.2 - Partly cloudy 10 - - - -
29/08:00pm 25.8 N 8 13 1009.4 - 0.2 - Cloudy 10 - - - -
29/07:30pm 25.9 N 8 11 1009.1 - 0.2 - Partly cloudy 10 - - - -
29/07:00pm 25.8 N 7 13 1008.7 - 0.2 - Partly cloudy 10 - - - -
29/06:30pm 25.5 N 8 12 1008.4 - 0.2 - Partly cloudy 10 - - - -
29/06:00pm 25.5 NNE 11 16 1007.6 R 0.2 Rain Cloudy 10 - - - -
29/05:30pm 26.3 N 12 16 1007.3 - 0.2 - Partly cloudy 10 - - - -
29/05:00pm 26.3 N 15 21 1006.6 - 0.2 - Mostly clear 10 - - - -
29/04:30pm 26.9 N 16 21 1006.2 - 0.2 - Mostly clear 10 - - - -
29/04:00pm 27.4 N 17 22 1006.1 - 0.2 - Mostly clear 10 - - - -
29/03:30pm 27.6 N 16 19 1006.7 - 0.2 - Mostly clear 10 - - - -
29/03:00pm 28.3 NNE 17 23 1006.7 F 0.2 - Cloudy 10 - - - -
29/02:30pm 27.4 N 16 21 1007.0 - 0.2 - Mostly clear 10 - - - -
29/02:00pm 28.1 NNE 19 23 1007.4 - 0.2 - Partly cloudy 10 - - - -
29/01:30pm 27.6 N 16 21 1008.0 - 0.2 - Partly cloudy 10 - - - -
29/01:00pm 28.6 N 17 23 1008.5 - 0.2 - Partly cloudy 10 - - - -
29/12:30pm 28.3 N 16 22 1008.9 - 0.2 - Mostly clear 10 - - - -
29/12:00pm 27.5 N 14 18 1009.6 F 0.2 - Cloudy 10 - - - -
29/11:30am 27.0 N 15 19 1010.0 - 0.2 - Mostly clear 10 - - - -
29/11:00am 27.2 N 11 15 1010.6 - 0.2 - Mostly clear 10 - - - -
29/10:30am 25.5 N 12 17 1011.1 - 0.2 - Mostly clear 10 - - - -
29/10:00am 25.4 NNE 9 13 1011.2 - 0.2 - Mostly clear 10 - - - -
29/09:30am 25.3 N 11 15 1011.4 - 0.2 Showers Mostly clear 8 - - - -
29/09:00am 25.0 N 6 8 1011.5 F 1.6 Showers Cloudy 10 - - - -
29/08:30am 25.3 NNE 9 14 1011.5 - 0.0 Showers Mostly clear 5 - - - -
29/08:00am 25.1 NNE 8 10 1011.5 - 0.0 - Partly cloudy 10 - - - -
29/07:30am 24.5 NNE 10 13 1011.1 - 0.0 - Partly cloudy 10 - - - -
29/07:00am 25.7 NNE 11 16 1010.6 - 0.0 - Partly cloudy 10 - - - -
29/06:30am 25.7 NNE 10 14 1010.4 - 0.0 - Partly cloudy 10 - - - -
29/06:00am 25.6 NNE 9 14 1010.2 F 0.0 - Cloudy 10 - - - -
29/05:30am 25.5 NNE 12 17 1010.1 - 0.0 - Partly cloudy 10 - - - -
29/05:00am 25.5 NNE 11 15 1010.0 - 0.0 - Partly cloudy 10 - - - -
29/04:30am 25.5 NNE 9 14 1010.0 - 0.0 - Partly cloudy 10 - - - -
29/04:00am 25.4 NNE 11 16 1009.6 - 0.0 - Partly cloudy 10 - - - -
29/03:30am 25.3 NNE 12 16 1009.6 - 0.0 - Partly cloudy 10 - - - -
29/03:00am 25.5 NNE 13 16 1009.8 F 0.0 - Cloudy 10 - - - -
29/02:30am 25.3 NNE 13 16 1010.0 - 0.0 - Partly cloudy 10 - - - -
29/02:00am 25.4 NNE 11 15 1010.5 - 0.0 - Cloudy 10 - - - -
29/01:30am 25.4 NNE 13 16 1010.8 - 0.0 - Partly cloudy 10 - - - -
29/01:00am 25.5 NNE 13 16 1011.2 - 0.0 - Partly cloudy 10 - - - -
29/12:30am 25.6 NNE 13 16 1011.6 - 0.0 - Partly cloudy 10 - - - -
29/12:00am 25.6 NNE 10 14 1011.7 F 0.0 - Cloudy 10 - - - -
 
Date/Time
EST
Temp
°C
Wind Pressure Rain since
9am
mm
Weather Cloud Vis
km
Sea
Height
m
Swell
Dir  Spd
kts
Gust
kts
hPa Trend Height
m
Period
s
Dir
28/11:30pm 25.5 NE 13 16 1011.8 - 0.0 - Partly cloudy 10 - - - -
28/11:00pm 25.2 NE 15 18 1011.6 - 0.0 - Partly cloudy 10 - - - -
28/10:30pm 25.3 NE 13 18 1011.7 - 0.0 - Partly cloudy 10 - - - -
28/10:00pm 25.3 NE 13 18 1011.7 - 0.0 - Partly cloudy 10 - - - -
28/09:30pm 25.4 ENE 12 16 1011.9 - 0.0 - Partly cloudy 10 - - - -
28/09:00pm 25.5 NE 9 12 1011.9 F 0.0 - Cloudy 10 - - - -
28/08:30pm 25.6 ENE 11 14 1012.1 - 0.0 - Partly cloudy 10 - - - -
28/08:00pm 25.3 NE 11 15 1011.7 - 0.0 - Partly cloudy 10 - - - -
28/07:30pm 25.3 ENE 12 18 1011.2 - 0.0 - Partly cloudy 10 - - - -
28/07:00pm 25.3 ENE 14 17 1011.3 - 0.0 - Partly cloudy 10 - - - -
28/06:30pm 25.4 ENE 12 16 1011.3 - 0.0 - Partly cloudy 10 - - - -
28/06:00pm 25.6 ENE 12 16 1011.2 S 0.0 - Partly cloudy 10 - - - -
28/05:30pm 26.0 ENE 12 16 1011.0 - 0.0 - Mostly clear 10 - - - -
28/05:00pm 26.2 ENE 12 18 1010.6 - 0.0 - Mostly clear 10 - - - -
28/04:30pm 27.2 ENE 15 19 1010.2 - 0.0 - Mostly clear 10 - - - -
28/04:00pm 27.8 ENE 15 19 1010.2 - 0.0 - Mostly clear 10 - - - -
28/03:30pm 28.0 ENE 14 19 1010.3 - 0.0 - Mostly clear 10 - - - -
28/03:00pm 28.6 ENE 14 19 1010.6 F 0.0 - Mostly clear 10 - - - -
28/02:30pm 28.5 ENE 14 18 1010.9 - 0.0 - Mostly clear 10 - - - -
28/02:00pm 28.5 ENE 16 20 1011.2 - 0.0 - Mostly clear 10 - - - -
28/01:30pm 28.9 ENE 15 18 1011.6 - 0.0 - Mostly clear 10 - - - -
28/01:00pm 29.3 ENE 14 19 1012.2 - 0.0 - Mostly clear 10 - - - -
28/12:30pm 28.8 ENE 14 17 1012.8 - 0.0 - Mostly clear 10 - - - -
28/12:00pm 28.9 ENE 14 18 1013.3 R 0.0 - Mostly clear 10 - - - -
28/11:30am 29.1 ENE 11 17 1013.7 - 0.0 - Mostly clear 10 - - - -
28/11:00am 28.3 E 11 14 1014.2 - 0.0 - Mostly clear 10 - - - -
28/10:30am 27.7 E 11 17 1014.5 - 0.0 - Partly cloudy 10 - - - -
28/10:00am 27.9 E 11 16 1014.3 - 0.0 - Partly cloudy 10 - - - -
28/09:30am 28.7 E 11 17 1014.5 - 0.0 - Partly cloudy 10 - - - -
28/09:00am 27.6 E 12 16 1014.4 F 0.0 - Mostly clear 10 - - - -
28/08:30am 27.1 ESE 11 15 1014.4 - 0.0 - Mostly clear 10 - - - -
28/08:00am 26.9 ESE 10 15 1014.1 - 0.0 - Mostly clear 10 - - - -
28/07:30am 25.7 ESE 9 11 1014.1 - 0.0 - Mostly clear 10 - - - -
28/07:00am 24.4 SE 8 9 1014.0 - 0.0 - Mostly clear 10 - - - -
28/06:30am 23.3 SE 6 8 1013.4 - 0.0 - Mostly clear 10 - - - -
28/06:00am 23.2 SE 7 8 1012.9 R 0.0 - Cloudy 10 - - - -
28/05:30am 23.3 ESE 7 9 1012.4 - 0.0 - Partly cloudy 10 - - - -
28/05:00am 23.4 SE 7 10 1012.1 - 0.0 - Partly cloudy 10 - - - -
28/04:30am 23.5 ESE 5 7 1011.8 - 0.0 - Partly cloudy 10 - - - -
28/04:00am 23.6 E 5 6 1011.6 - 0.0 - - 10 - - - -
28/03:30am 23.9 SE 7 9 1011.7 - 0.0 - Partly cloudy 10 - - - -
28/03:00am 23.9 SE 7 8 1012.0 F 0.0 - Partly cloudy 10 - - - -
28/02:30am 24.8 E 6 7 1012.0 - 0.0 - Partly cloudy 10 - - - -
28/02:00am 24.9 ENE 6 8 1012.1 - 0.0 - Partly cloudy 10 - - - -
28/01:30am 25.0 NE 7 8 1012.4 - 0.0 - Partly cloudy 10 - - - -
28/01:00am 24.2 SE 5 6 1013.0 - 0.0 - - 10 - - - -
28/12:30am 24.2 SE 6 9 1013.3 - 0.0 - - 10 - - - -
28/12:00am 24.4 ESE 7 9 1013.5 F 0.0 - Mostly clear 10 - - - -
 
Date/Time
EST
Temp
°C
Wind Pressure Rain since
9am
mm
Weather Cloud Vis
km
Sea
Height
m
Swell
Dir  Spd
kts
Gust
kts
hPa Trend Height
m
Period
s
Dir
27/11:30pm 25.0 SE 9 13 1013.8 - 0.0 - Partly cloudy 10 - - - -
27/11:00pm 25.0 ESE 9 11 1013.5 - 0.0 - - 10 - - - -
27/10:30pm 25.1 E 7 10 1013.7 - 0.0 - Partly cloudy 10 - - - -
27/10:00pm 25.2 ESE 9 12 1013.9 - 0.0 - - 10 - - - -
27/09:30pm 24.9 E 7 9 1013.8 - 0.0 - - 10 - - - -
27/09:00pm 24.0 E 6 9 1013.5 R 0.0 - - 10 - - - -
27/08:30pm 24.8 NW 3 4 1013.1 - 0.0 - - 10 - - - -
27/08:00pm 25.2 CALM 0 0 1012.8 - 0.0 - - 10 - - - -
27/07:30pm 25.5 NW 1 4 1012.5 - 0.0 - - 10 - - - -
27/07:00pm 25.3 CALM 0 0 1012.2 - 0.0 - - 10 - - - -
27/06:30pm 25.9 NW 2 5 1011.4 - 0.0 - - 10 - - - -
27/06:00pm 26.9 NNW 8 10 1011.0 R 0.0 - - 10 - - - -
27/05:30pm 28.4 NNW 8 9 1010.6 - 0.0 - Mostly clear 10 - - - -
27/05:00pm 29.1 NNW 8 10 1010.2 - 0.0 - Mostly clear 10 - - - -
27/04:30pm 29.6 NNW 9 10 1009.9 - 0.0 - Mostly clear 10 - - - -
27/04:00pm 30.6 NE 7 10 1009.8 - 0.0 - Mostly clear 10 - - - -
27/03:30pm 31.0 NE 9 11 1009.8 - 0.0 - Mostly clear 10 - - - -
27/03:00pm 31.0 NE 10 15 1009.9 F 0.0 - Mostly clear 10 - - - -

Other Formats:

Comma delimited format used in spreadsheet applications
http://www.bom.gov.au/fwo/IDQ60701/IDQ60701.94294.axf

JavaScript Object Notation format (JSON) in row-major order
http://www.bom.gov.au/fwo/IDQ60701/IDQ60701.94294.json